This is the latest recevied weather packets stored in our database for station/object SQ7KHZ-10. If no packets are shown the sender has not sent any weather packets the latest 10 day(s).
| Time | Temp. | Humidity | Pressure | Rain* | Wind** | Luminosity | Snow |
|---|---|---|---|---|---|---|---|
| 1777639281 | 20° C | 46% | 1025 hPa | 0 mm | - | - | - |
| 1777638071 | 20° C | 46% | 1025.1 hPa | 0 mm | - | - | - |
| 1777635854 | 19.44° C | 48% | 1025.3 hPa | 0 mm | - | - | - |
| 1777634645 | 18.89° C | 48% | 1025.3 hPa | 0 mm | - | - | - |
| 1777633436 | 18.89° C | 48% | 1025.5 hPa | 0 mm | - | - | - |
| 1777632236 | 17.78° C | 50% | 1025.6 hPa | 0 mm | - | - | - |
| 1777631027 | 18.33° C | 47% | 1025.7 hPa | 0 mm | - | - | - |
| 1777629818 | 17.78° C | 49% | 1025.6 hPa | 0 mm | - | - | - |
| 1777628611 | 17.22° C | 48% | 1025.8 hPa | 0 mm | - | - | - |
| 1777627400 | 17.22° C | 49% | 1025.9 hPa | 0 mm | - | - | - |
| 1777626192 | 16.67° C | 51% | 1026 hPa | 0 mm | - | - | - |
| 1777624983 | 16.67° C | 48% | 1026 hPa | 0 mm | - | - | - |
| 1777623772 | 16.11° C | 45% | 1026 hPa | 0 mm | - | - | - |
| 1777622561 | 15.56° C | 48% | 1026 hPa | 0 mm | - | - | - |
| 1777621351 | 15° C | 50% | 1026.1 hPa | 0 mm | - | - | - |
| 1777620143 | 15° C | 56% | 1026.2 hPa | 0 mm | - | - | - |
| 1777618939 | 13.89° C | 57% | 1026.1 hPa | 0 mm | - | - | - |
| 1777617712 | 12.78° C | 60% | 1026.1 hPa | 0 mm | - | - | - |
| 1777616509 | 11.11° C | 66% | 1026.1 hPa | 0 mm | - | - | - |
| 1777615304 | 10.56° C | 67% | 1026.1 hPa | 0 mm | - | - | - |
| 1777614100 | 10° C | 70% | 1026.1 hPa | 0 mm | - | - | - |
| 1777612900 | 9.44° C | 70% | 1026.1 hPa | 0 mm | - | - | - |
| 1777611699 | 8.33° C | 73% | 1026.1 hPa | 0 mm | - | - | - |
| 1777610499 | 7.78° C | 74% | 1026 hPa | 0 mm | - | - | - |
| 1777609298 | 7.22° C | 76% | 1026 hPa | 0 mm | - | - | - |
* Rain latest hour (hover to see other rain measurements)
** Current wind speed in m/s (hover to see current wind gust speed)